sensor_id;sensor_type;location;lat;lon;timestamp;pressure;altitude;pressure_sealevel;temperature;humidity
48364;BME280;34170;54.364;18.582;2023-04-24T00:00:25;99310.47;;;13.97;100.00
48364;BME280;34170;54.364;18.582;2023-04-24T00:03:13;99304.06;;;13.98;100.00
48364;BME280;34170;54.364;18.582;2023-04-24T00:05:41;99308.38;;;13.92;100.00
48364;BME280;34170;54.364;18.582;2023-04-24T00:08:08;99307.06;;;13.37;100.00
48364;BME280;34170;54.364;18.582;2023-04-24T00:10:36;99301.31;;;13.40;100.00
48364;BME280;34170;54.364;18.582;2023-04-24T00:13:03;99308.91;;;13.21;100.00
48364;BME280;34170;54.364;18.582;2023-04-24T00:15:31;99306.13;;;13.44;100.00
48364;BME280;34170;54.364;18.582;2023-04-24T00:17:58;99311.31;;;13.61;100.00
48364;BME280;34170;54.364;18.582;2023-04-24T00:20:28;99310.66;;;13.59;100.00
48364;BME280;34170;54.364;18.582;2023-04-24T00:23:02;99306.41;;;13.49;100.00
48364;BME280;34170;54.364;18.582;2023-04-24T00:25:30;99302.47;;;13.52;100.00
48364;BME280;34170;54.364;18.582;2023-04-24T00:27:57;99309.63;;;13.75;100.00
48364;BME280;34170;54.364;18.582;2023-04-24T00:30:24;99304.91;;;13.62;100.00
48364;BME280;34170;54.364;18.582;2023-04-24T00:32:52;99302.38;;;13.60;100.00
48364;BME280;34170;54.364;18.582;2023-04-24T00:35:19;99311.72;;;13.13;100.00
48364;BME280;34170;54.364;18.582;2023-04-24T00:37:47;99307.50;;;13.10;100.00
48364;BME280;34170;54.364;18.582;2023-04-24T00:40:14;99303.25;;;13.31;100.00
48364;BME280;34170;54.364;18.582;2023-04-24T00:42:43;99303.72;;;13.34;100.00
48364;BME280;34170;54.364;18.582;2023-04-24T00:45:11;99303.88;;;13.48;100.00
48364;BME280;34170;54.364;18.582;2023-04-24T00:47:40;99296.03;;;13.23;100.00
48364;BME280;34170;54.364;18.582;2023-04-24T00:50:09;99298.59;;;13.40;100.00
48364;BME280;34170;54.364;18.582;2023-04-24T00:52:36;99295.44;;;13.36;100.00
48364;BME280;34170;54.364;18.582;2023-04-24T00:55:04;99290.19;;;13.49;100.00
48364;BME280;34170;54.364;18.582;2023-04-24T00:57:32;99293.72;;;13.65;100.00
48364;BME280;34170;54.364;18.582;2023-04-24T01:00:00;99296.16;;;13.15;100.00
48364;BME280;34170;54.364;18.582;2023-04-24T01:02:27;99291.41;;;13.02;100.00
48364;BME280;34170;54.364;18.582;2023-04-24T01:04:55;99289.25;;;12.83;100.00
48364;BME280;34170;54.364;18.582;2023-04-24T01:07:24;99298.88;;;12.62;100.00
48364;BME280;34170;54.364;18.582;2023-04-24T01:09:52;99295.06;;;12.71;100.00
48364;BME280;34170;54.364;18.582;2023-04-24T01:12:20;99289.91;;;12.85;100.00
48364;BME280;34170;54.364;18.582;2023-04-24T01:14:47;99303.78;;;13.11;100.00
48364;BME280;34170;54.364;18.582;2023-04-24T01:17:15;99289.34;;;12.36;100.00
48364;BME280;34170;54.364;18.582;2023-04-24T01:19:43;99290.84;;;11.85;100.00
48364;BME280;34170;54.364;18.582;2023-04-24T01:22:14;99296.38;;;12.37;100.00
48364;BME280;34170;54.364;18.582;2023-04-24T01:24:42;99291.31;;;12.81;100.00
48364;BME280;34170;54.364;18.582;2023-04-24T01:27:12;99287.50;;;12.90;100.00
48364;BME280;34170;54.364;18.582;2023-04-24T01:29:39;99281.41;;;12.73;100.00
48364;BME280;34170;54.364;18.582;2023-04-24T01:32:09;99293.25;;;12.72;100.00
48364;BME280;34170;54.364;18.582;2023-04-24T01:34:37;99299.50;;;13.02;100.00
48364;BME280;34170;54.364;18.582;2023-04-24T01:37:05;99289.97;;;12.76;100.00
48364;BME280;34170;54.364;18.582;2023-04-24T01:39:33;99299.88;;;12.99;100.00
48364;BME280;34170;54.364;18.582;2023-04-24T01:42:00;99299.03;;;12.99;100.00
48364;BME280;34170;54.364;18.582;2023-04-24T01:44:30;99292.13;;;12.96;100.00
48364;BME280;34170;54.364;18.582;2023-04-24T01:46:57;99285.34;;;13.00;100.00
48364;BME280;34170;54.364;18.582;2023-04-24T01:49:25;99284.41;;;12.93;100.00
48364;BME280;34170;54.364;18.582;2023-04-24T01:51:53;99283.56;;;12.77;100.00
48364;BME280;34170;54.364;18.582;2023-04-24T01:54:20;99270.31;;;12.68;100.00
48364;BME280;34170;54.364;18.582;2023-04-24T01:56:47;99285.03;;;12.80;100.00
48364;BME280;34170;54.364;18.582;2023-04-24T01:59:17;99274.38;;;12.87;100.00
48364;BME280;34170;54.364;18.582;2023-04-24T02:01:45;99281.06;;;12.91;100.00
48364;BME280;34170;54.364;18.582;2023-04-24T02:04:12;99273.94;;;12.22;100.00
48364;BME280;34170;54.364;18.582;2023-04-24T02:06:42;99258.00;;;12.35;100.00
48364;BME280;34170;54.364;18.582;2023-04-24T02:09:09;99268.44;;;12.53;100.00
48364;BME280;34170;54.364;18.582;2023-04-24T02:11:37;99263.53;;;12.57;100.00
48364;BME280;34170;54.364;18.582;2023-04-24T02:14:05;99258.94;;;12.43;100.00
48364;BME280;34170;54.364;18.582;2023-04-24T02:16:32;99253.19;;;12.46;100.00
48364;BME280;34170;54.364;18.582;2023-04-24T02:19:00;99258.28;;;12.40;100.00
48364;BME280;34170;54.364;18.582;2023-04-24T02:21:27;99249.03;;;12.58;100.00
48364;BME280;34170;54.364;18.582;2023-04-24T02:23:55;99248.22;;;12.72;100.00
48364;BME280;34170;54.364;18.582;2023-04-24T02:26:22;99249.78;;;12.67;100.00
48364;BME280;34170;54.364;18.582;2023-04-24T02:28:51;99242.53;;;12.67;100.00
48364;BME280;34170;54.364;18.582;2023-04-24T02:31:20;99235.38;;;12.74;100.00
48364;BME280;34170;54.364;18.582;2023-04-24T02:33:48;99248.09;;;12.66;100.00
48364;BME280;34170;54.364;18.582;2023-04-24T02:36:15;99229.31;;;12.72;100.00
48364;BME280;34170;54.364;18.582;2023-04-24T02:38:43;99238.06;;;12.74;100.00
48364;BME280;34170;54.364;18.582;2023-04-24T02:41:12;99236.38;;;12.58;100.00
48364;BME280;34170;54.364;18.582;2023-04-24T02:43:42;99238.63;;;12.70;100.00
48364;BME280;34170;54.364;18.582;2023-04-24T02:46:09;99233.78;;;12.65;100.00
48364;BME280;34170;54.364;18.582;2023-04-24T02:48:37;99233.22;;;12.55;100.00
48364;BME280;34170;54.364;18.582;2023-04-24T02:51:05;99228.28;;;12.58;100.00
48364;BME280;34170;54.364;18.582;2023-04-24T02:53:33;99228.28;;;12.44;100.00
48364;BME280;34170;54.364;18.582;2023-04-24T02:56:02;99221.63;;;12.31;100.00
48364;BME280;34170;54.364;18.582;2023-04-24T02:58:29;99219.31;;;12.28;100.00
48364;BME280;34170;54.364;18.582;2023-04-24T03:00:57;99222.25;;;12.56;100.00
48364;BME280;34170;54.364;18.582;2023-04-24T03:03:25;99208.75;;;12.71;100.00
48364;BME280;34170;54.364;18.582;2023-04-24T03:05:52;99210.63;;;12.56;100.00
48364;BME280;34170;54.364;18.582;2023-04-24T03:08:20;99211.16;;;11.98;100.00
48364;BME280;34170;54.364;18.582;2023-04-24T03:10:48;99205.44;;;12.16;100.00
48364;BME280;34170;54.364;18.582;2023-04-24T03:13:16;99202.47;;;12.26;100.00
48364;BME280;34170;54.364;18.582;2023-04-24T03:15:43;99208.81;;;12.33;100.00
48364;BME280;34170;54.364;18.582;2023-04-24T03:18:12;99203.31;;;12.27;100.00
48364;BME280;34170;54.364;18.582;2023-04-24T03:20:39;99209.44;;;12.20;100.00
48364;BME280;34170;54.364;18.582;2023-04-24T03:23:07;99201.88;;;12.16;100.00
48364;BME280;34170;54.364;18.582;2023-04-24T03:25:36;99217.19;;;12.38;100.00
48364;BME280;34170;54.364;18.582;2023-04-24T03:28:03;99213.56;;;12.46;100.00
48364;BME280;34170;54.364;18.582;2023-04-24T03:30:41;99215.31;;;12.24;100.00
48364;BME280;34170;54.364;18.582;2023-04-24T03:33:09;99211.72;;;12.47;100.00
48364;BME280;34170;54.364;18.582;2023-04-24T03:35:44;99215.38;;;12.16;100.00
48364;BME280;34170;54.364;18.582;2023-04-24T03:38:12;99208.63;;;11.97;100.00
48364;BME280;34170;54.364;18.582;2023-04-24T03:40:59;99208.72;;;12.04;100.00
48364;BME280;34170;54.364;18.582;2023-04-24T03:43:36;99210.28;;;11.98;100.00
48364;BME280;34170;54.364;18.582;2023-04-24T03:46:04;99208.94;;;11.48;100.00
48364;BME280;34170;54.364;18.582;2023-04-24T03:48:36;99211.00;;;12.15;100.00
48364;BME280;34170;54.364;18.582;2023-04-24T03:51:03;99211.44;;;12.42;100.00
48364;BME280;34170;54.364;18.582;2023-04-24T03:53:32;99211.41;;;12.27;100.00
48364;BME280;34170;54.364;18.582;2023-04-24T03:55:59;99213.41;;;12.48;100.00
48364;BME280;34170;54.364;18.582;2023-04-24T03:58:29;99206.22;;;12.40;100.00
48364;BME280;34170;54.364;18.582;2023-04-24T04:00:56;99205.75;;;11.98;100.00
48364;BME280;34170;54.364;18.582;2023-04-24T04:03:34;99211.81;;;12.00;100.00
48364;BME280;34170;54.364;18.582;2023-04-24T04:06:02;99204.47;;;11.86;100.00
48364;BME280;34170;54.364;18.582;2023-04-24T04:08:30;99211.97;;;11.99;100.00
48364;BME280;34170;54.364;18.582;2023-04-24T04:10:57;99207.28;;;12.16;100.00
48364;BME280;34170;54.364;18.582;2023-04-24T04:13:25;99209.88;;;12.47;100.00
48364;BME280;34170;54.364;18.582;2023-04-24T04:15:52;99208.56;;;12.58;100.00
48364;BME280;34170;54.364;18.582;2023-04-24T04:18:20;99211.56;;;12.63;100.00
48364;BME280;34170;54.364;18.582;2023-04-24T04:20:47;99221.59;;;12.54;100.00
48364;BME280;34170;54.364;18.582;2023-04-24T04:23:15;99220.66;;;12.47;100.00
48364;BME280;34170;54.364;18.582;2023-04-24T04:26:03;99211.63;;;12.55;100.00
48364;BME280;34170;54.364;18.582;2023-04-24T04:28:46;99214.69;;;12.37;100.00
48364;BME280;34170;54.364;18.582;2023-04-24T04:31:15;99224.81;;;12.50;100.00
48364;BME280;34170;54.364;18.582;2023-04-24T04:33:42;99219.59;;;12.33;100.00
48364;BME280;34170;54.364;18.582;2023-04-24T04:36:10;99221.59;;;12.54;100.00
48364;BME280;34170;54.364;18.582;2023-04-24T04:38:42;99217.88;;;12.70;100.00
48364;BME280;34170;54.364;18.582;2023-04-24T04:41:23;99225.41;;;12.60;100.00
48364;BME280;34170;54.364;18.582;2023-04-24T04:43:51;99219.09;;;12.83;100.00
48364;BME280;34170;54.364;18.582;2023-04-24T04:46:20;99226.38;;;12.97;100.00
48364;BME280;34170;54.364;18.582;2023-04-24T04:49:03;99216.41;;;12.83;100.00
48364;BME280;34170;54.364;18.582;2023-04-24T04:51:30;99222.63;;;12.98;100.00
48364;BME280;34170;54.364;18.582;2023-04-24T04:53:58;99225.78;;;13.16;100.00
48364;BME280;34170;54.364;18.582;2023-04-24T04:56:26;99217.38;;;13.41;100.00
48364;BME280;34170;54.364;18.582;2023-04-24T04:58:53;99218.28;;;13.48;100.00
48364;BME280;34170;54.364;18.582;2023-04-24T05:01:21;99212.72;;;13.71;100.00
48364;BME280;34170;54.364;18.582;2023-04-24T05:03:50;99222.72;;;13.92;100.00
48364;BME280;34170;54.364;18.582;2023-04-24T05:06:18;99220.09;;;13.99;100.00
48364;BME280;34170;54.364;18.582;2023-04-24T05:08:48;99220.38;;;13.89;100.00
48364;BME280;34170;54.364;18.582;2023-04-24T05:11:26;99214.59;;;13.71;100.00
48364;BME280;34170;54.364;18.582;2023-04-24T05:13:55;99211.50;;;13.52;100.00
48364;BME280;34170;54.364;18.582;2023-04-24T05:16:31;99201.19;;;13.41;100.00
48364;BME280;34170;54.364;18.582;2023-04-24T05:18:59;99200.63;;;13.46;100.00
48364;BME280;34170;54.364;18.582;2023-04-24T05:21:32;99217.41;;;12.82;100.00
48364;BME280;34170;54.364;18.582;2023-04-24T05:24:00;99213.16;;;13.02;100.00
48364;BME280;34170;54.364;18.582;2023-04-24T05:26:42;99203.44;;;12.93;100.00
48364;BME280;34170;54.364;18.582;2023-04-24T05:29:10;99203.78;;;13.49;100.00
48364;BME280;34170;54.364;18.582;2023-04-24T05:31:38;99197.88;;;12.80;100.00
48364;BME280;34170;54.364;18.582;2023-04-24T05:34:06;99204.47;;;13.22;100.00
48364;BME280;34170;54.364;18.582;2023-04-24T05:36:34;99193.22;;;13.18;100.00
48364;BME280;34170;54.364;18.582;2023-04-24T05:39:02;99202.78;;;13.35;100.00
48364;BME280;34170;54.364;18.582;2023-04-24T05:41:34;99200.00;;;13.29;100.00
48364;BME280;34170;54.364;18.582;2023-04-24T05:44:02;99197.13;;;13.01;100.00
48364;BME280;34170;54.364;18.582;2023-04-24T05:46:29;99195.75;;;11.84;100.00
48364;BME280;34170;54.364;18.582;2023-04-24T05:48:57;99198.25;;;12.62;100.00
48364;BME280;34170;54.364;18.582;2023-04-24T05:51:24;99189.31;;;11.85;100.00
48364;BME280;34170;54.364;18.582;2023-04-24T05:53:53;99199.38;;;12.67;100.00
48364;BME280;34170;54.364;18.582;2023-04-24T05:56:20;99204.28;;;12.78;100.00
48364;BME280;34170;54.364;18.582;2023-04-24T05:58:49;99208.28;;;13.12;100.00
48364;BME280;34170;54.364;18.582;2023-04-24T06:01:17;99199.09;;;12.92;100.00
48364;BME280;34170;54.364;18.582;2023-04-24T06:03:51;99197.88;;;12.80;100.00
48364;BME280;34170;54.364;18.582;2023-04-24T06:06:20;99196.97;;;13.02;100.00
48364;BME280;34170;54.364;18.582;2023-04-24T06:08:48;99201.91;;;12.99;100.00
48364;BME280;34170;54.364;18.582;2023-04-24T06:11:15;99201.88;;;12.84;100.00
48364;BME280;34170;54.364;18.582;2023-04-24T06:13:43;99200.88;;;13.51;100.00
48364;BME280;34170;54.364;18.582;2023-04-24T06:16:37;99213.28;;;17.50;76.07
48364;BME280;34170;54.364;18.582;2023-04-24T06:19:16;99208.13;;;18.37;68.20
48364;BME280;34170;54.364;18.582;2023-04-24T06:21:44;99207.78;;;18.02;63.00
48364;BME280;34170;54.364;18.582;2023-04-24T06:24:14;99200.72;;;17.04;68.03
48364;BME280;34170;54.364;18.582;2023-04-24T06:26:41;99198.22;;;14.72;87.27
48364;BME280;34170;54.364;18.582;2023-04-24T06:29:09;99189.16;;;14.86;82.79
48364;BME280;34170;54.364;18.582;2023-04-24T06:31:36;99183.84;;;12.69;100.00
48364;BME280;34170;54.364;18.582;2023-04-24T06:34:04;99178.03;;;13.53;100.00
48364;BME280;34170;54.364;18.582;2023-04-24T06:36:32;99190.09;;;13.94;99.86
48364;BME280;34170;54.364;18.582;2023-04-24T06:39:01;99194.16;;;13.83;97.16
48364;BME280;34170;54.364;18.582;2023-04-24T06:41:29;99196.91;;;13.32;96.92
48364;BME280;34170;54.364;18.582;2023-04-24T06:43:56;99187.28;;;12.63;100.00
48364;BME280;34170;54.364;18.582;2023-04-24T06:46:23;99179.28;;;11.79;100.00
48364;BME280;34170;54.364;18.582;2023-04-24T06:48:54;99186.75;;;11.14;100.00
48364;BME280;34170;54.364;18.582;2023-04-24T06:51:24;99182.38;;;11.68;100.00
48364;BME280;34170;54.364;18.582;2023-04-24T06:53:53;99168.25;;;11.89;100.00
48364;BME280;34170;54.364;18.582;2023-04-24T06:56:21;99179.47;;;12.00;100.00
48364;BME280;34170;54.364;18.582;2023-04-24T06:58:49;99162.19;;;11.95;100.00
48364;BME280;34170;54.364;18.582;2023-04-24T07:01:16;99176.59;;;12.02;100.00
48364;BME280;34170;54.364;18.582;2023-04-24T07:03:44;99170.81;;;11.04;100.00
48364;BME280;34170;54.364;18.582;2023-04-24T07:06:11;99174.13;;;11.92;100.00
48364;BME280;34170;54.364;18.582;2023-04-24T07:08:39;99175.22;;;12.21;100.00
48364;BME280;34170;54.364;18.582;2023-04-24T07:11:08;99173.47;;;12.28;100.00
48364;BME280;34170;54.364;18.582;2023-04-24T07:13:36;99163.13;;;12.02;100.00
48364;BME280;34170;54.364;18.582;2023-04-24T07:16:03;99162.44;;;12.38;100.00
48364;BME280;34170;54.364;18.582;2023-04-24T07:18:31;99161.22;;;12.55;100.00
48364;BME280;34170;54.364;18.582;2023-04-24T07:20:58;99164.94;;;12.69;100.00
48364;BME280;34170;54.364;18.582;2023-04-24T07:23:26;99161.59;;;12.37;100.00
48364;BME280;34170;54.364;18.582;2023-04-24T07:25:53;99151.59;;;12.61;100.00
48364;BME280;34170;54.364;18.582;2023-04-24T07:28:20;99156.41;;;12.81;100.00
48364;BME280;34170;54.364;18.582;2023-04-24T07:30:47;99146.56;;;12.58;100.00
48364;BME280;34170;54.364;18.582;2023-04-24T07:33:15;99142.19;;;12.72;100.00
48364;BME280;34170;54.364;18.582;2023-04-24T07:35:42;99142.63;;;12.90;100.00
48364;BME280;34170;54.364;18.582;2023-04-24T07:38:10;99143.31;;;13.14;100.00
48364;BME280;34170;54.364;18.582;2023-04-24T07:40:38;99136.13;;;13.21;100.00
48364;BME280;34170;54.364;18.582;2023-04-24T07:43:05;99133.13;;;12.80;100.00
48364;BME280;34170;54.364;18.582;2023-04-24T07:45:33;99122.81;;;12.83;100.00
48364;BME280;34170;54.364;18.582;2023-04-24T07:48:04;99138.00;;;13.21;100.00
48364;BME280;34170;54.364;18.582;2023-04-24T07:50:31;99140.03;;;13.33;100.00
48364;BME280;34170;54.364;18.582;2023-04-24T07:52:59;99143.84;;;12.88;100.00
48364;BME280;34170;54.364;18.582;2023-04-24T07:55:26;99138.06;;;13.42;100.00
48364;BME280;34170;54.364;18.582;2023-04-24T07:57:54;99124.31;;;12.11;100.00
48364;BME280;34170;54.364;18.582;2023-04-24T08:00:21;99119.09;;;13.21;100.00
48364;BME280;34170;54.364;18.582;2023-04-24T08:02:49;99131.00;;;12.75;100.00
48364;BME280;34170;54.364;18.582;2023-04-24T08:05:16;99130.00;;;12.61;100.00
48364;BME280;34170;54.364;18.582;2023-04-24T08:07:45;99137.16;;;13.35;100.00
48364;BME280;34170;54.364;18.582;2023-04-24T08:10:15;99143.06;;;13.88;100.00
48364;BME280;34170;54.364;18.582;2023-04-24T08:12:43;99141.28;;;14.24;100.00
48364;BME280;34170;54.364;18.582;2023-04-24T08:15:10;99126.13;;;14.29;100.00
48364;BME280;34170;54.364;18.582;2023-04-24T08:17:38;99125.09;;;14.02;100.00
48364;BME280;34170;54.364;18.582;2023-04-24T08:20:06;99132.13;;;14.25;100.00
48364;BME280;34170;54.364;18.582;2023-04-24T08:22:37;99123.84;;;13.55;100.00
48364;BME280;34170;54.364;18.582;2023-04-24T08:25:04;99125.31;;;14.07;100.00
48364;BME280;34170;54.364;18.582;2023-04-24T08:27:32;99126.03;;;14.79;100.00
48364;BME280;34170;54.364;18.582;2023-04-24T08:29:59;99129.94;;;15.25;100.00
48364;BME280;34170;54.364;18.582;2023-04-24T08:32:27;99134.00;;;14.24;100.00
48364;BME280;34170;54.364;18.582;2023-04-24T08:34:58;99129.28;;;15.16;100.00
48364;BME280;34170;54.364;18.582;2023-04-24T08:37:26;99128.97;;;15.66;100.00
48364;BME280;34170;54.364;18.582;2023-04-24T08:39:54;99136.19;;;14.71;100.00
48364;BME280;34170;54.364;18.582;2023-04-24T08:42:22;99123.19;;;16.16;100.00
48364;BME280;34170;54.364;18.582;2023-04-24T08:44:49;99131.44;;;16.74;100.00
48364;BME280;34170;54.364;18.582;2023-04-24T08:47:17;99142.78;;;17.55;89.09
48364;BME280;34170;54.364;18.582;2023-04-24T08:49:47;99140.53;;;18.34;81.51
48364;BME280;34170;54.364;18.582;2023-04-24T08:52:15;99143.63;;;19.00;77.63
48364;BME280;34170;54.364;18.582;2023-04-24T08:54:43;99140.47;;;18.41;80.23
48364;BME280;34170;54.364;18.582;2023-04-24T08:57:14;99138.06;;;18.70;76.15
48364;BME280;34170;54.364;18.582;2023-04-24T08:59:43;99128.16;;;18.57;79.28
48364;BME280;34170;54.364;18.582;2023-04-24T09:02:12;99129.19;;;18.37;78.04
48364;BME280;34170;54.364;18.582;2023-04-24T09:04:41;99139.47;;;17.53;87.13
48364;BME280;34170;54.364;18.582;2023-04-24T09:07:12;99148.47;;;17.79;87.09
48364;BME280;34170;54.364;18.582;2023-04-24T09:09:41;99140.13;;;17.42;86.49
48364;BME280;34170;54.364;18.582;2023-04-24T09:12:09;99128.84;;;17.45;86.37
48364;BME280;34170;54.364;18.582;2023-04-24T09:14:37;99126.44;;;15.31;100.00
48364;BME280;34170;54.364;18.582;2023-04-24T09:17:12;99122.53;;;14.22;100.00
48364;BME280;34170;54.364;18.582;2023-04-24T09:19:40;99128.50;;;15.29;100.00
48364;BME280;34170;54.364;18.582;2023-04-24T09:22:09;99123.97;;;14.53;100.00
48364;BME280;34170;54.364;18.582;2023-04-24T09:24:36;99116.25;;;15.40;100.00
48364;BME280;34170;54.364;18.582;2023-04-24T09:27:36;99115.91;;;15.76;100.00
48364;BME280;34170;54.364;18.582;2023-04-24T09:30:10;99105.19;;;15.35;100.00
48364;BME280;34170;54.364;18.582;2023-04-24T09:32:38;99106.28;;;15.67;100.00
48364;BME280;34170;54.364;18.582;2023-04-24T09:35:14;99109.97;;;14.43;100.00
48364;BME280;34170;54.364;18.582;2023-04-24T09:37:45;99108.31;;;15.45;100.00
48364;BME280;34170;54.364;18.582;2023-04-24T09:40:21;99103.28;;;14.67;100.00
48364;BME280;34170;54.364;18.582;2023-04-24T09:42:56;99109.28;;;15.11;100.00
48364;BME280;34170;54.364;18.582;2023-04-24T09:45:35;99107.75;;;15.76;100.00
48364;BME280;34170;54.364;18.582;2023-04-24T09:48:03;99105.88;;;16.10;100.00
48364;BME280;34170;54.364;18.582;2023-04-24T09:50:33;99089.78;;;15.42;100.00
48364;BME280;34170;54.364;18.582;2023-04-24T09:53:03;99075.41;;;16.15;100.00
48364;BME280;34170;54.364;18.582;2023-04-24T09:55:32;99086.28;;;16.01;100.00
48364;BME280;34170;54.364;18.582;2023-04-24T09:58:00;99103.53;;;17.51;100.00
48364;BME280;34170;54.364;18.582;2023-04-24T10:00:29;99106.44;;;17.49;100.00
48364;BME280;34170;54.364;18.582;2023-04-24T10:09:13;99085.91;;;18.10;94.96
48364;BME280;34170;54.364;18.582;2023-04-24T10:11:45;99075.75;;;18.80;81.72
48364;BME280;34170;54.364;18.582;2023-04-24T10:14:14;99089.44;;;21.46;66.43
48364;BME280;34170;54.364;18.582;2023-04-24T10:16:43;99100.75;;;22.35;60.56
48364;BME280;34170;54.364;18.582;2023-04-24T10:19:11;99080.03;;;19.24;73.10
48364;BME280;34170;54.364;18.582;2023-04-24T10:21:41;99077.81;;;19.75;72.29
48364;BME280;34170;54.364;18.582;2023-04-24T10:24:17;99083.94;;;21.75;61.44
48364;BME280;34170;54.364;18.582;2023-04-24T10:26:46;99079.47;;;20.59;64.82
48364;BME280;34170;54.364;18.582;2023-04-24T10:29:17;99084.94;;;19.88;68.69
48364;BME280;34170;54.364;18.582;2023-04-24T10:31:45;99076.44;;;18.94;72.99
48364;BME280;34170;54.364;18.582;2023-04-24T10:34:15;99075.94;;;19.88;68.75
48364;BME280;34170;54.364;18.582;2023-04-24T10:36:50;99065.25;;;21.72;59.76
48364;BME280;34170;54.364;18.582;2023-04-24T10:39:20;99061.09;;;19.84;67.70
48364;BME280;34170;54.364;18.582;2023-04-24T10:41:54;99068.56;;;19.88;69.63
48364;BME280;34170;54.364;18.582;2023-04-24T10:44:25;99057.44;;;20.89;64.12
48364;BME280;34170;54.364;18.582;2023-04-24T10:46:55;99065.69;;;20.54;67.51
48364;BME280;34170;54.364;18.582;2023-04-24T10:49:29;99068.38;;;19.59;70.96
48364;BME280;34170;54.364;18.582;2023-04-24T10:52:02;99066.31;;;20.32;66.40
48364;BME280;34170;54.364;18.582;2023-04-24T10:54:45;99058.91;;;20.56;64.79
48364;BME280;34170;54.364;18.582;2023-04-24T11:02:42;99053.28;;;19.45;68.99
48364;BME280;34170;54.364;18.582;2023-04-24T11:05:17;99044.72;;;18.81;72.56
48364;BME280;34170;54.364;18.582;2023-04-24T11:10:44;99045.25;;;19.50;68.22
48364;BME280;34170;54.364;18.582;2023-04-24T11:13:16;99054.63;;;19.66;68.93
48364;BME280;34170;54.364;18.582;2023-04-24T11:15:43;99055.41;;;19.43;70.39
48364;BME280;34170;54.364;18.582;2023-04-24T11:18:14;99050.66;;;18.41;73.63
48364;BME280;34170;54.364;18.582;2023-04-24T11:20:44;99047.84;;;19.03;72.90
48364;BME280;34170;54.364;18.582;2023-04-24T11:23:13;99035.16;;;19.51;68.46
48364;BME280;34170;54.364;18.582;2023-04-24T11:25:41;99042.69;;;19.25;70.94
48364;BME280;34170;54.364;18.582;2023-04-24T11:28:14;99046.09;;;19.20;73.68
48364;BME280;34170;54.364;18.582;2023-04-24T11:30:43;99039.19;;;19.06;72.22
48364;BME280;34170;54.364;18.582;2023-04-24T11:33:10;99044.19;;;17.98;78.63
48364;BME280;34170;54.364;18.582;2023-04-24T11:35:41;99029.28;;;17.76;80.70
48364;BME280;34170;54.364;18.582;2023-04-24T11:38:09;99037.13;;;18.16;78.32
48364;BME280;34170;54.364;18.582;2023-04-24T11:40:40;99029.16;;;18.88;75.56
48364;BME280;34170;54.364;18.582;2023-04-24T11:43:09;99029.00;;;18.64;74.96
48364;BME280;34170;54.364;18.582;2023-04-24T11:45:37;99022.59;;;19.50;73.05
48364;BME280;34170;54.364;18.582;2023-04-24T11:48:05;99023.75;;;19.42;72.25
48364;BME280;34170;54.364;18.582;2023-04-24T11:50:33;99021.66;;;20.38;66.53
48364;BME280;34170;54.364;18.582;2023-04-24T11:53:00;99018.22;;;19.60;69.63
48364;BME280;34170;54.364;18.582;2023-04-24T11:55:29;99029.34;;;20.65;63.82
48364;BME280;34170;54.364;18.582;2023-04-24T11:57:58;99013.50;;;20.91;56.60
48364;BME280;34170;54.364;18.582;2023-04-24T12:00:29;99018.19;;;20.67;54.28
48364;BME280;34170;54.364;18.582;2023-04-24T12:03:07;99012.00;;;19.84;56.34
48364;BME280;34170;54.364;18.582;2023-04-24T12:05:36;99006.91;;;19.87;56.27
48364;BME280;34170;54.364;18.582;2023-04-24T12:08:04;99010.94;;;20.61;54.12
48364;BME280;34170;54.364;18.582;2023-04-24T12:10:33;99007.16;;;21.19;50.89
48364;BME280;34170;54.364;18.582;2023-04-24T12:13:01;99008.50;;;21.62;48.97
48364;BME280;34170;54.364;18.582;2023-04-24T12:15:29;99014.69;;;20.19;52.36
48364;BME280;34170;54.364;18.582;2023-04-24T12:17:57;99005.44;;;19.73;54.08
48364;BME280;34170;54.364;18.582;2023-04-24T12:20:28;99018.13;;;20.38;52.08
48364;BME280;34170;54.364;18.582;2023-04-24T12:22:57;98997.91;;;20.63;50.58
48364;BME280;34170;54.364;18.582;2023-04-24T12:25:27;99009.03;;;19.97;50.96
48364;BME280;34170;54.364;18.582;2023-04-24T12:27:55;99000.00;;;19.73;52.86
48364;BME280;34170;54.364;18.582;2023-04-24T12:30:27;98986.25;;;20.03;51.30
48364;BME280;34170;54.364;18.582;2023-04-24T12:32:57;98985.38;;;19.55;53.16
48364;BME280;34170;54.364;18.582;2023-04-24T12:35:31;98982.72;;;19.91;52.06
48364;BME280;34170;54.364;18.582;2023-04-24T12:38:09;98977.38;;;19.84;50.92
48364;BME280;34170;54.364;18.582;2023-04-24T12:40:37;98976.63;;;19.53;51.44
48364;BME280;34170;54.364;18.582;2023-04-24T12:43:18;98980.97;;;19.31;50.70
48364;BME280;34170;54.364;18.582;2023-04-24T12:45:49;98961.13;;;19.89;49.23
48364;BME280;34170;54.364;18.582;2023-04-24T12:48:16;98975.66;;;19.59;48.34
48364;BME280;34170;54.364;18.582;2023-04-24T12:50:44;98970.38;;;19.76;49.50
48364;BME280;34170;54.364;18.582;2023-04-24T12:53:14;98965.56;;;19.36;50.01
48364;BME280;34170;54.364;18.582;2023-04-24T12:55:42;98954.22;;;19.51;50.00
48364;BME280;34170;54.364;18.582;2023-04-24T12:58:09;98963.78;;;19.42;51.60
48364;BME280;34170;54.364;18.582;2023-04-24T13:00:38;98946.84;;;19.40;51.59
48364;BME280;34170;54.364;18.582;2023-04-24T13:03:05;98942.50;;;19.86;51.51
48364;BME280;34170;54.364;18.582;2023-04-24T13:05:33;98943.63;;;19.31;51.36
48364;BME280;34170;54.364;18.582;2023-04-24T13:08:01;98944.50;;;19.79;48.83